Time;durP1;ratioP1;P1;durP2;ratioP2;P2;SDS_P1;SDS_P2;PMS_P1;PMS_P2;Temp;Humidity;BMP_temperature;BMP_pressure;BME280_temperature;BME280_humidity;BME280_pressure;Samples;Min_cycle;Max_cycle;Signal;HPM_P1;HPM_P2
2021/09/30 00:01:25;;;;;;;0.60;0.40;;;;;;;10.86;94.25;101544.94;5013198;28;20443;-70
2021/09/30 00:03:52;;;;;;;1.53;0.60;;;;;;;10.84;93.21;101541.69;5013180;28;20444;-69
2021/09/30 00:06:19;;;;;;;4.10;0.70;;;;;;;10.84;94.42;101541.69;5013173;28;20440;-70
2021/09/30 00:08:46;;;;;;;0.60;0.60;;;;;;;10.83;92.97;101540.06;5012987;28;20529;-70
2021/09/30 00:11:19;;;;;;;0.90;0.70;;;;;;;10.79;95.37;101542.53;5012861;28;20811;-70
2021/09/30 00:13:49;;;;;;;0.47;0.47;;;;;;;10.78;93.11;101545.53;5013338;28;20432;-70
2021/09/30 00:33:03;;;;;;;0.60;0.53;;;;;;;10.65;93.39;101560.50;5016371;28;20447;-70
2021/09/30 00:41:15;;;;;;;1.20;0.70;;;;;;;10.55;95.17;101564.06;5016355;28;20423;-70
2021/09/30 00:46:30;;;;;;;0.80;0.70;;;;;;;10.55;92.88;101574.88;5016209;28;20482;-70
2021/09/30 00:49:06;;;;;;;17.20;2.20;;;;;;;10.56;93.27;101570.28;5016319;28;20862;-70
2021/09/30 00:51:40;;;;;;;0.73;0.50;;;;;;;10.58;92.92;101574.34;5016249;28;20518;-70
2021/09/30 01:20:16;;;;;;;23.53;1.37;;;;;;;10.44;92.79;101603.06;5015548;28;20937;-70
2021/09/30 02:19:04;;;;;;;0.40;0.30;;;;;;;10.24;94.16;101613.94;5014503;28;20416;-70
2021/09/30 02:22:04;;;;;;;0.40;0.30;;;;;;;10.25;95.01;101610.16;5014302;28;20475;-70
2021/09/30 02:27:26;;;;;;;0.40;0.27;;;;;;;10.26;94.46;101619.91;5003471;28;20444;-69
2021/09/30 02:30:03;;;;;;;0.40;0.30;;;;;;;10.24;93.75;101617.47;5014172;28;20435;-69
2021/09/30 03:00:15;;;;;;;0.40;0.30;;;;;;;10.19;94.98;101620.16;5013833;28;20459;-70
2021/09/30 03:02:47;;;;;;;0.40;0.30;;;;;;;10.20;94.36;101620.97;5013774;28;20475;-69
2021/09/30 03:05:15;;;;;;;0.40;0.30;;;;;;;10.20;95.16;101620.97;5013567;28;20436;-69
2021/09/30 03:07:44;;;;;;;0.40;0.20;;;;;;;10.30;96.47;101627.22;5013763;28;20448;-70
2021/09/30 03:10:12;;;;;;;0.40;0.30;;;;;;;10.31;96.46;101628.88;5013744;28;20451;-69
2021/09/30 03:12:40;;;;;;;0.40;0.20;;;;;;;10.35;94.28;101631.81;5013316;28;20464;-70
2021/09/30 03:15:14;;;;;;;0.40;0.30;;;;;;;10.39;94.34;101632.88;5013339;28;20532;-70
2021/09/30 03:17:45;;;;;;;0.40;0.30;;;;;;;10.40;94.19;101641.81;5013468;28;20466;-69
2021/09/30 03:20:28;;;;;;;0.40;0.30;;;;;;;10.41;94.82;101638.84;5013688;28;20539;-70
2021/09/30 03:22:58;;;;;;;0.40;0.30;;;;;;;10.43;94.39;101641.28;5013066;28;20508;-69
2021/09/30 03:25:26;;;;;;;0.40;0.20;;;;;;;10.44;93.69;101642.91;5013495;28;20424;-70
2021/09/30 03:27:53;;;;;;;0.40;0.30;;;;;;;10.44;93.33;101641.00;5013225;28;20995;-70
2021/09/30 03:30:20;;;;;;;0.40;0.30;;;;;;;10.43;93.14;101638.56;5013616;28;20447;-70
2021/09/30 03:32:46;;;;;;;0.40;0.30;;;;;;;10.39;93.61;101640.19;5013416;28;20464;-70
2021/09/30 03:35:13;;;;;;;0.40;0.20;;;;;;;10.39;94.92;101643.72;5013369;28;20487;-70
2021/09/30 03:37:39;;;;;;;0.40;0.40;;;;;;;10.41;94.39;101638.06;5013117;28;20821;-70
2021/09/30 03:40:09;;;;;;;0.40;0.30;;;;;;;10.41;94.71;101648.88;5013098;28;20956;-69
2021/09/30 03:42:35;;;;;;;0.40;0.30;;;;;;;10.43;95.49;101644.78;5013305;28;20487;-70
2021/09/30 03:45:02;;;;;;;0.40;0.30;;;;;;;10.45;93.70;101639.13;5013285;28;20447;-69
2021/09/30 03:47:28;;;;;;;0.40;0.30;;;;;;;10.43;93.32;101642.09;5013090;28;20937;-70
2021/09/30 03:49:55;;;;;;;0.40;0.30;;;;;;;10.43;93.43;101644.78;5013284;28;20439;-70
2021/09/30 03:52:26;;;;;;;0.40;0.20;;;;;;;10.42;93.55;101642.38;5013262;28;20471;-70
2021/09/30 03:55:04;;;;;;;0.40;0.30;;;;;;;10.42;93.80;101650.50;5012886;28;20464;-69
2021/09/30 03:57:48;;;;;;;0.40;0.30;;;;;;;10.41;94.79;101643.47;5014734;28;20431;-70
2021/09/30 04:00:14;;;;;;;0.40;0.30;;;;;;;10.42;94.08;101648.59;5017125;28;20428;-69
2021/09/30 04:02:41;;;;;;;0.40;0.20;;;;;;;10.43;93.37;101660.25;5017109;28;20874;-70
2021/09/30 04:05:08;;;;;;;0.40;0.30;;;;;;;10.46;94.89;101657.81;5016788;28;20826;-70
2021/09/30 04:07:35;;;;;;;0.40;0.30;;;;;;;10.47;94.07;101650.50;5017040;28;20444;-70
2021/09/30 04:10:01;;;;;;;0.40;0.30;;;;;;;10.46;93.58;101657.00;5017003;28;20436;-69
2021/09/30 04:12:28;;;;;;;0.40;0.20;;;;;;;10.49;93.51;101659.13;5016936;28;20471;-69
2021/09/30 04:14:56;;;;;;;0.40;0.30;;;;;;;10.46;93.74;101662.41;5016547;28;20451;-69
2021/09/30 04:17:22;;;;;;;0.40;0.30;;;;;;;10.44;93.71;101669.97;5016909;28;20452;-70
2021/09/30 04:19:49;;;;;;;0.40;0.30;;;;;;;10.43;92.97;101663.75;5016527;28;20448;-70
2021/09/30 04:22:15;;;;;;;0.40;0.30;;;;;;;10.40;93.76;101669.72;5016378;28;21018;-70
2021/09/30 04:24:44;;;;;;;0.40;0.30;;;;;;;10.38;93.44;101673.78;5016772;28;20447;-70
2021/09/30 04:27:11;;;;;;;0.40;0.30;;;;;;;10.34;94.57;101679.75;5016519;28;20436;-71
2021/09/30 04:29:37;;;;;;;0.40;0.30;;;;;;;10.26;93.54;101684.91;5016359;28;20454;-69
2021/09/30 04:32:06;;;;;;;0.40;0.20;;;;;;;10.26;94.31;101683.00;5016546;28;20467;-70
2021/09/30 04:34:32;;;;;;;0.40;0.30;;;;;;;10.28;93.81;101688.97;5016315;28;20965;-70
2021/09/30 04:36:59;;;;;;;0.40;0.30;;;;;;;10.29;94.13;101689.78;5016330;28;20487;-70
2021/09/30 04:39:26;;;;;;;0.40;0.30;;;;;;;10.28;93.40;101697.09;5016527;28;20443;-70
2021/09/30 04:41:53;;;;;;;0.40;0.30;;;;;;;10.29;93.51;101693.28;5016328;28;20472;-70
2021/09/30 04:44:22;;;;;;;0.40;0.20;;;;;;;10.29;93.45;101692.50;5016411;28;20451;-70
2021/09/30 04:46:49;;;;;;;0.40;0.30;;;;;;;10.29;94.21;101701.41;5016378;28;20522;-70
2021/09/30 04:49:17;;;;;;;0.40;0.30;;;;;;;10.29;93.83;101698.72;5016311;28;20444;-70
2021/09/30 04:51:43;;;;;;;0.50;0.40;;;;;;;10.30;94.41;101703.03;5015847;28;20460;-70
2021/09/30 04:54:10;;;;;;;0.40;0.30;;;;;;;10.33;95.44;101715.22;5016204;28;20812;-70
2021/09/30 04:56:36;;;;;;;0.40;0.30;;;;;;;10.38;96.28;101709.81;5016081;28;20491;-70
2021/09/30 04:59:04;;;;;;;0.40;0.30;;;;;;;10.40;95.08;101717.66;5015841;28;20945;-70
2021/09/30 05:01:31;;;;;;;0.40;0.30;;;;;;;10.45;95.40;101720.38;5015754;28;20841;-70
2021/09/30 05:03:58;;;;;;;0.40;0.30;;;;;;;10.50;95.22;101717.66;5015672;28;20966;-70
2021/09/30 05:06:26;;;;;;;0.40;0.30;;;;;;;10.49;94.15;101726.84;5016013;28;20451;-69
2021/09/30 05:08:57;;;;;;;0.40;0.30;;;;;;;10.49;93.87;101721.44;5015039;28;20447;-70
2021/09/30 05:11:24;;;;;;;0.40;0.30;;;;;;;10.53;93.93;101730.66;5015925;28;20432;-69
2021/09/30 05:13:53;;;;;;;0.40;0.30;;;;;;;10.58;93.64;101725.22;5015781;28;20502;-69
2021/09/30 05:16:20;;;;;;;0.40;0.30;;;;;;;10.62;93.22;101734.44;5015452;28;20862;-69
2021/09/30 05:18:48;;;;;;;0.40;0.30;;;;;;;10.64;92.98;101740.41;5015720;28;20448;-69
2021/09/30 05:21:15;;;;;;;0.40;0.20;;;;;;;10.73;92.74;101730.63;5015492;28;20447;-69
2021/09/30 05:23:43;;;;;;;0.40;0.30;;;;;;;10.79;94.43;101736.84;5015445;28;20428;-69
2021/09/30 05:26:10;;;;;;;0.40;0.30;;;;;;;10.79;92.09;101726.81;5015387;28;20817;-69
2021/09/30 05:28:36;;;;;;;0.40;0.20;;;;;;;10.83;92.00;101736.03;5015048;28;20463;-69
2021/09/30 05:31:04;;;;;;;0.40;0.30;;;;;;;10.88;92.02;101739.81;5015267;28;20451;-69
2021/09/30 05:33:31;;;;;;;0.40;0.30;;;;;;;10.90;91.97;101737.66;5014980;28;20476;-69
2021/09/30 05:35:57;;;;;;;0.40;0.30;;;;;;;10.93;92.36;101745.22;5015256;28;20482;-69
2021/09/30 05:38:24;;;;;;;0.40;0.20;;;;;;;10.96;93.33;101748.19;5015090;28;20455;-69
2021/09/30 05:40:54;;;;;;;0.40;0.30;;;;;;;10.98;92.03;101746.03;5014980;28;20450;-69
2021/09/30 05:43:23;;;;;;;0.40;0.30;;;;;;;11.04;92.01;101750.34;5015097;28;20499;-70
2021/09/30 05:45:54;;;;;;;0.40;0.30;;;;;;;11.04;92.71;101753.06;5015212;28;20535;-69
2021/09/30 05:48:20;;;;;;;0.40;0.30;;;;;;;11.09;91.13;101757.66;5014998;28;20456;-70
2021/09/30 05:50:47;;;;;;;0.40;0.30;;;;;;;11.09;91.83;101758.47;5014855;28;20949;-69
2021/09/30 05:53:14;;;;;;;0.40;0.20;;;;;;;11.08;92.94;101756.03;5014982;28;20463;-70
2021/09/30 05:55:40;;;;;;;0.40;0.20;;;;;;;11.16;92.59;101760.09;5014931;28;20484;-70
2021/09/30 05:58:08;;;;;;;0.40;0.20;;;;;;;11.17;92.94;101762.53;5015002;28;20447;-70
2021/09/30 06:00:41;;;;;;;0.40;0.30;;;;;;;11.14;91.82;101759.56;5014949;28;20451;-70
2021/09/30 06:11:20;;;;;;;0.40;0.20;;;;;;;11.21;91.22;101765.50;5014205;28;20451;-70
2021/09/30 06:13:52;;;;;;;0.40;0.20;;;;;;;11.25;91.77;101775.53;5014679;28;20450;-70
2021/09/30 06:16:22;;;;;;;0.40;0.30;;;;;;;11.29;90.39;101776.59;5014604;28;20465;-70
2021/09/30 06:18:49;;;;;;;0.40;0.20;;;;;;;11.29;89.59;101779.31;5014603;28;20459;-73
2021/09/30 06:21:16;;;;;;;0.40;0.30;;;;;;;11.33;90.09;101793.09;5014269;28;20444;-73
2021/09/30 06:23:43;;;;;;;0.40;0.30;;;;;;;11.29;90.00;101783.94;5014395;28;20531;-70
2021/09/30 06:26:10;;;;;;;0.40;0.30;;;;;;;11.30;88.67;101785.53;5014222;28;20443;-68
2021/09/30 06:28:40;;;;;;;0.40;0.20;;;;;;;11.30;89.31;101786.34;5013967;28;20539;-68
2021/09/30 06:31:08;;;;;;;0.40;0.30;;;;;;;11.37;90.30;101792.28;5014500;28;20926;-69
2021/09/30 06:33:35;;;;;;;0.40;0.20;;;;;;;11.42;89.46;101798.78;5014248;28;20467;-69
2021/09/30 06:36:01;;;;;;;0.40;0.20;;;;;;;11.42;88.21;101790.63;5014169;28;20491;-71
2021/09/30 06:38:29;;;;;;;0.40;0.30;;;;;;;11.44;88.64;101797.44;5014316;28;20440;-72
2021/09/30 06:40:55;;;;;;;0.40;0.20;;;;;;;11.47;88.09;101796.88;5013939;28;20454;-69
2021/09/30 06:43:22;;;;;;;0.40;0.30;;;;;;;11.48;87.82;101795.78;5014117;28;20468;-69
2021/09/30 06:45:50;;;;;;;0.40;0.30;;;;;;;11.45;88.08;101801.75;5013879;28;20440;-69
2021/09/30 06:48:18;;;;;;;0.40;0.30;;;;;;;11.43;87.63;101803.13;5014122;28;20444;-69
2021/09/30 06:50:46;;;;;;;0.40;0.30;;;;;;;11.43;88.01;101805.84;5014100;28;20451;-69
2021/09/30 06:53:12;;;;;;;0.40;0.30;;;;;;;11.49;88.96;101812.88;5013966;28;20530;-69
2021/09/30 06:55:42;;;;;;;0.40;0.20;;;;;;;11.49;88.46;101810.16;5013939;28;20444;-68
2021/09/30 06:58:10;;;;;;;0.40;0.20;;;;;;;11.46;88.08;101816.13;5013798;28;20440;-68
2021/09/30 07:00:37;;;;;;;0.40;0.20;;;;;;;11.45;87.06;101820.75;5013941;28;20527;-68
2021/09/30 07:03:03;;;;;;;0.40;0.20;;;;;;;11.43;87.99;101814.00;5013842;28;20470;-68
2021/09/30 07:05:32;;;;;;;0.40;0.20;;;;;;;11.47;88.31;101820.50;5013835;28;20440;-68
2021/09/30 07:08:00;;;;;;;0.40;0.30;;;;;;;11.52;89.38;101829.41;5013823;28;20448;-68
2021/09/30 07:10:27;;;;;;;0.40;0.20;;;;;;;11.57;89.54;101823.16;5013806;28;20439;-69
2021/09/30 07:12:53;;;;;;;0.40;0.30;;;;;;;11.61;88.52;101840.53;5013739;28;20464;-68
2021/09/30 07:15:20;;;;;;;0.40;0.30;;;;;;;11.58;87.94;101830.22;5013442;28;20945;-68
2021/09/30 07:17:46;;;;;;;0.40;0.20;;;;;;;11.62;87.95;101837.53;5013622;28;20484;-68
2021/09/30 07:20:13;;;;;;;0.40;0.30;;;;;;;11.63;87.07;101838.31;5013341;28;20964;-69
2021/09/30 07:22:41;;;;;;;0.40;0.30;;;;;;;11.68;87.92;101840.22;5013038;28;21040;-70
2021/09/30 07:25:08;;;;;;;0.40;0.30;;;;;;;11.71;88.24;101840.47;5013614;28;20828;-71
2021/09/30 07:27:35;;;;;;;0.40;0.30;;;;;;;11.74;87.42;101847.25;5013527;28;20447;-70
2021/09/30 07:30:01;;;;;;;0.40;0.20;;;;;;;11.74;88.58;101849.97;5014843;28;20448;-69
2021/09/30 07:32:28;;;;;;;0.40;0.30;;;;;;;11.77;87.33;101857.53;5012738;28;20487;-69
2021/09/30 07:34:54;;;;;;;0.40;0.30;;;;;;;11.83;88.47;101853.75;5013420;28;20455;-69
2021/09/30 07:37:21;;;;;;;0.40;0.20;;;;;;;11.92;88.10;101857.53;5013155;28;20484;-69
2021/09/30 07:39:49;;;;;;;0.40;0.30;;;;;;;11.96;85.97;101849.63;5013347;28;20444;-69
2021/09/30 07:42:15;;;;;;;0.40;0.30;;;;;;;11.96;86.23;101861.31;5013281;28;20464;-69
2021/09/30 07:44:42;;;;;;;0.40;0.20;;;;;;;11.99;86.41;101849.06;5012984;28;20467;-68
2021/09/30 07:47:09;;;;;;;0.40;0.20;;;;;;;12.06;86.67;101863.97;5013368;28;20463;-69
2021/09/30 07:49:35;;;;;;;0.40;0.30;;;;;;;12.12;85.39;101856.59;5013353;28;20460;-69
2021/09/30 07:52:02;;;;;;;0.40;0.30;;;;;;;12.20;84.76;101858.72;5013243;28;20459;-68
2021/09/30 07:54:28;;;;;;;0.40;0.30;;;;;;;12.25;84.64;101861.41;5013311;28;20444;-69
2021/09/30 07:56:56;;;;;;;0.40;0.30;;;;;;;12.26;85.31;101871.22;5013155;28;20488;-69
2021/09/30 07:59:22;;;;;;;0.40;0.20;;;;;;;12.32;85.40;101872.78;5013221;28;20444;-69
2021/09/30 08:01:49;;;;;;;0.40;0.30;;;;;;;12.35;85.43;101872.25;5012935;28;20464;-69
2021/09/30 08:04:15;;;;;;;0.40;0.30;;;;;;;12.41;84.37;101878.44;5012918;28;20440;-69
2021/09/30 08:06:42;;;;;;;0.40;0.20;;;;;;;12.39;83.45;101875.19;5012825;28;20937;-69
2021/09/30 08:09:08;;;;;;;0.40;0.30;;;;;;;12.49;85.42;101880.56;5013078;28;20443;-69
2021/09/30 08:11:35;;;;;;;0.40;0.20;;;;;;;12.56;82.92;101885.69;5012768;28;20463;-69
2021/09/30 08:14:03;;;;;;;0.40;0.20;;;;;;;12.67;83.27;101887.25;5012814;28;20448;-69
2021/09/30 08:16:30;;;;;;;0.40;0.20;;;;;;;12.68;81.69;101893.50;5013016;28;20479;-69
2021/09/30 08:18:58;;;;;;;0.40;0.20;;;;;;;12.71;82.19;101888.31;5013059;28;20440;-69
2021/09/30 08:21:27;;;;;;;0.40;0.30;;;;;;;12.83;82.01;101899.63;5012840;28;20448;-69
2021/09/30 08:23:53;;;;;;;0.40;0.30;;;;;;;12.92;82.69;101902.53;5013039;28;20464;-69
2021/09/30 08:26:20;;;;;;;0.40;0.20;;;;;;;13.03;82.02;101903.28;5012989;28;20451;-69
2021/09/30 08:28:50;;;;;;;0.40;0.20;;;;;;;13.11;82.43;101902.69;5012936;28;20451;-69
2021/09/30 08:31:20;;;;;;;0.40;0.30;;;;;;;13.20;82.10;101911.03;5012928;28;20432;-69
2021/09/30 08:33:46;;;;;;;0.40;0.30;;;;;;;13.31;80.94;101916.09;5012920;28;20498;-69
2021/09/30 08:36:13;;;;;;;0.40;0.30;;;;;;;13.42;80.63;101916.03;5012793;28;20450;-69
2021/09/30 08:38:41;;;;;;;0.40;0.27;;;;;;;13.50;80.57;101918.09;5012855;28;20531;-69
2021/09/30 08:41:08;;;;;;;0.40;0.20;;;;;;;13.55;79.96;101920.81;5012853;28;20436;-69
2021/09/30 08:43:35;;;;;;;0.40;0.23;;;;;;;13.52;78.75;101918.66;5012738;28;20467;-68
2021/09/30 08:46:02;;;;;;;0.40;0.30;;;;;;;13.46;78.64;101919.78;5016010;28;20436;-69
2021/09/30 08:48:30;;;;;;;0.40;0.20;;;;;;;13.49;80.65;101921.94;5016304;28;20804;-69
2021/09/30 08:50:56;;;;;;;0.40;0.20;;;;;;;13.36;80.07;101923.41;5015969;28;20506;-69
2021/09/30 08:53:23;;;;;;;0.40;0.30;;;;;;;13.40;78.45;101919.03;5016256;28;20470;-69
2021/09/30 08:55:49;;;;;;;0.40;0.20;;;;;;;13.37;78.99;101923.16;5016204;28;20448;-69
2021/09/30 08:58:16;;;;;;;0.40;0.30;;;;;;;13.30;78.97;101928.09;5016131;28;20479;-69
2021/09/30 09:00:44;;;;;;;0.40;0.20;;;;;;;13.23;78.01;101934.97;5016098;28;20464;-69
2021/09/30 09:03:12;;;;;;;0.40;0.20;;;;;;;13.23;78.43;101929.53;5016110;28;20474;-69
2021/09/30 09:05:41;;;;;;;0.40;0.20;;;;;;;13.22;80.51;101930.59;5016031;28;20795;-69
2021/09/30 09:08:11;;;;;;;0.40;0.20;;;;;;;13.21;81.79;101929.78;5016015;28;20444;-68
2021/09/30 09:10:40;;;;;;;0.40;0.20;;;;;;;13.25;81.36;101933.59;5015727;28;20501;-69
2021/09/30 09:13:09;;;;;;;0.40;0.30;;;;;;;13.21;80.78;101937.13;5015883;28;20468;-69
2021/09/30 09:15:44;;;;;;;0.40;0.30;;;;;;;13.24;82.41;101939.34;5015834;28;20459;-68
2021/09/30 09:18:18;;;;;;;0.40;0.20;;;;;;;13.25;80.62;101938.22;5015446;28;20878;-69
2021/09/30 09:21:02;;;;;;;0.40;0.30;;;;;;;13.21;80.71;101937.94;5015745;28;20452;-68
2021/09/30 09:23:30;;;;;;;0.40;0.30;;;;;;;13.22;80.65;101936.03;5015308;28;20858;-69
2021/09/30 09:26:11;;;;;;;0.40;0.20;;;;;;;13.25;80.18;101949.13;5015309;28;20444;-69
2021/09/30 09:28:39;;;;;;;0.40;0.30;;;;;;;13.24;79.98;101948.31;5015620;28;20424;-69
2021/09/30 09:31:06;;;;;;;0.40;0.30;;;;;;;13.22;79.44;101953.19;5015591;28;20440;-69
2021/09/30 09:33:35;;;;;;;0.40;0.30;;;;;;;13.25;79.54;101952.63;5015503;28;20469;-69
2021/09/30 09:36:05;;;;;;;0.40;0.30;;;;;;;13.30;80.74;101941.72;5015495;28;20452;-69
2021/09/30 09:38:46;;;;;;;0.40;0.30;;;;;;;13.40;79.05;101950.88;5015413;28;20526;-69
2021/09/30 09:41:19;;;;;;;0.40;0.30;;;;;;;13.49;79.94;101949.97;5015370;28;20424;-69
2021/09/30 09:43:46;;;;;;;0.40;0.20;;;;;;;13.62;79.18;101953.94;5015350;28;20436;-69
2021/09/30 09:46:17;;;;;;;0.40;0.20;;;;;;;13.71;79.67;101952.19;5015171;28;20535;-69
2021/09/30 09:48:56;;;;;;;0.40;0.30;;;;;;;13.79;79.11;101965.19;5015273;28;20433;-69
2021/09/30 09:51:24;;;;;;;0.40;0.30;;;;;;;13.88;78.94;101965.38;5015127;28;20428;-69
2021/09/30 09:53:56;;;;;;;0.40;0.20;;;;;;;14.00;76.34;101963.06;5015040;28;20440;-69
2021/09/30 09:56:23;;;;;;;0.40;0.30;;;;;;;14.12;75.89;101963.47;5014433;28;20435;-69
2021/09/30 09:58:52;;;;;;;0.40;0.20;;;;;;;14.25;77.09;101956.47;5014907;28;20495;-69
2021/09/30 10:01:24;;;;;;;0.40;0.30;;;;;;;14.35;73.81;101971.91;5014631;28;20487;-69
2021/09/30 10:03:57;;;;;;;0.40;0.30;;;;;;;14.43;74.37;101960.31;5014945;28;20455;-69
2021/09/30 10:06:26;;;;;;;0.40;0.30;;;;;;;14.54;74.00;101961.84;5014631;28;20964;-68
2021/09/30 10:08:53;;;;;;;0.40;0.30;;;;;;;14.65;71.62;101959.78;5014830;28;20451;-69
2021/09/30 10:11:21;;;;;;;0.40;0.30;;;;;;;14.74;72.20;101955.31;5014727;28;20448;-70
2021/09/30 10:13:48;;;;;;;0.40;0.30;;;;;;;14.89;73.12;101955.06;5014708;28;20432;-68
2021/09/30 10:16:24;;;;;;;0.40;0.30;;;;;;;14.93;71.86;101957.22;5014724;28;20447;-67
2021/09/30 10:18:52;;;;;;;0.40;0.23;;;;;;;15.05;72.82;101963.84;5014578;28;20547;-67
2021/09/30 10:21:19;;;;;;;0.40;0.20;;;;;;;15.30;73.02;101962.59;5014332;28;20444;-70
2021/09/30 10:23:52;;;;;;;0.40;0.30;;;;;;;15.56;72.01;101964.91;5014364;28;20820;-70
2021/09/30 10:26:23;;;;;;;0.40;0.20;;;;;;;15.69;69.72;101969.59;5014578;28;20436;-69
2021/09/30 10:28:50;;;;;;;0.40;0.30;;;;;;;15.90;70.01;101970.03;5014203;28;20491;-69
2021/09/30 10:31:28;;;;;;;0.40;0.20;;;;;;;16.15;68.57;101965.97;5014405;28;20450;-69
2021/09/30 10:33:58;;;;;;;0.40;0.30;;;;;;;16.36;69.38;101971.81;5014466;28;20529;-69
2021/09/30 10:36:30;;;;;;;0.40;0.30;;;;;;;16.42;66.16;101969.78;5014394;28;20451;-69
2021/09/30 10:39:22;;;;;;;0.40;0.20;;;;;;;16.26;65.34;101975.59;5014215;28;20486;-70
2021/09/30 10:41:49;;;;;;;0.40;0.30;;;;;;;16.29;65.11;101972.25;5014236;28;20503;-69
2021/09/30 10:44:18;;;;;;;0.40;0.20;;;;;;;16.38;65.97;101970.41;5014256;28;20459;-69
2021/09/30 10:46:48;;;;;;;0.40;0.30;;;;;;;16.27;64.86;101971.72;5013871;28;20446;-69
2021/09/30 10:49:44;;;;;;;0.40;0.30;;;;;;;16.32;64.08;101974.34;5014158;28;20842;-68
2021/09/30 10:52:26;;;;;;;0.40;0.30;;;;;;;16.34;66.45;101966.69;5014016;28;20463;-69
2021/09/30 10:55:25;;;;;;;0.40;0.23;;;;;;;16.54;64.96;101975.53;5013731;28;20952;-69
2021/09/30 10:57:55;;;;;;;0.40;0.20;;;;;;;16.58;64.08;101980.09;5010100;28;20567;-69
2021/09/30 11:00:52;;;;;;;0.40;0.20;;;;;;;16.49;65.71;101976.47;5013754;28;20905;-69
2021/09/30 11:03:26;;;;;;;0.40;0.30;;;;;;;16.51;64.66;101967.94;5013168;28;20478;-69
2021/09/30 11:06:17;;;;;;;0.40;0.20;;;;;;;16.61;66.08;101965.81;5013647;28;20435;-69
2021/09/30 11:08:48;;;;;;;0.40;0.27;;;;;;;16.65;66.21;101966.00;5013700;28;20424;-69
2021/09/30 11:11:22;;;;;;;0.40;0.20;;;;;;;16.67;62.74;101961.03;5013824;28;20440;-69
2021/09/30 11:14:17;;;;;;;0.40;0.30;;;;;;;16.35;61.39;101968.28;5013788;28;20440;-69
2021/09/30 11:16:46;;;;;;;0.40;0.23;;;;;;;16.36;63.95;101960.88;5013830;28;20432;-69
2021/09/30 11:19:34;;;;;;;0.40;0.30;;;;;;;16.29;64.93;101968.69;5013600;28;20476;-69
2021/09/30 11:22:03;;;;;;;0.40;0.20;;;;;;;16.23;64.94;101965.25;5013302;28;20479;-69
2021/09/30 11:24:35;;;;;;;0.40;0.30;;;;;;;16.22;62.87;101962.84;5013552;28;20444;-69
2021/09/30 11:27:27;;;;;;;0.40;0.30;;;;;;;16.09;64.43;101964.47;5013534;28;20502;-69
2021/09/30 11:30:16;;;;;;;0.40;0.20;;;;;;;16.19;64.41;101969.72;5013213;28;20921;-69
2021/09/30 11:32:44;;;;;;;0.87;0.87;;;;;;;16.15;65.01;101968.69;5013410;28;20455;-69
2021/09/30 11:35:10;;;;;;;0.40;0.30;;;;;;;16.04;64.50;101979.03;5013452;28;20451;-69
2021/09/30 11:37:43;;;;;;;0.40;0.30;;;;;;;16.11;65.20;101973.16;5013301;28;20484;-69
2021/09/30 11:40:19;;;;;;;0.40;0.20;;;;;;;16.18;66.80;101973.56;5013365;28;20502;-69
2021/09/30 11:42:49;;;;;;;0.40;0.30;;;;;;;15.99;63.96;101975.59;5013459;28;20455;-68
2021/09/30 11:45:21;;;;;;;0.40;0.20;;;;;;;15.95;63.61;101969.13;5013054;28;20824;-68
2021/09/30 11:47:48;;;;;;;0.40;0.30;;;;;;;15.82;65.02;101973.47;5013374;28;20430;-68
2021/09/30 11:50:18;;;;;;;0.40;0.20;;;;;;;15.74;64.94;101974.16;5013353;28;20808;-68
2021/09/30 11:52:54;;;;;;;0.40;0.20;;;;;;;15.64;64.34;101980.63;5013201;28;20471;-68
2021/09/30 11:55:21;;;;;;;0.40;0.20;;;;;;;15.57;65.55;101982.91;5012970;28;20792;-68
2021/09/30 11:57:55;;;;;;;0.40;0.30;;;;;;;15.56;65.78;101982.09;5013164;28;20483;-68
2021/09/30 12:00:24;;;;;;;0.40;0.20;;;;;;;15.60;66.65;101983.09;5012917;28;20443;-68
2021/09/30 12:02:55;;;;;;;0.40;0.30;;;;;;;15.74;65.82;101985.91;5013116;28;20456;-68
2021/09/30 12:05:24;;;;;;;0.40;0.27;;;;;;;16.54;66.56;101987.28;5013197;28;20444;-68
2021/09/30 12:07:51;;;;;;;0.40;0.23;;;;;;;17.07;64.06;101991.34;5013195;28;20506;-68
2021/09/30 12:10:18;;;;;;;0.40;0.20;;;;;;;17.55;62.29;101988.75;5013191;28;20439;-68
2021/09/30 12:12:46;;;;;;;0.40;0.27;;;;;;;18.31;60.39;101991.34;5013007;28;20460;-68
2021/09/30 12:15:13;;;;;;;0.40;0.23;;;;;;;19.63;58.72;101993.81;5013108;28;20452;-68
2021/09/30 12:17:42;;;;;;;0.40;0.30;;;;;;;20.63;54.18;101995.97;5012943;28;20484;-68
2021/09/30 12:20:12;;;;;;;0.40;0.27;;;;;;;21.25;49.86;101997.06;5016595;28;20952;-68
2021/09/30 12:22:41;;;;;;;0.40;0.30;;;;;;;21.83;50.76;101995.16;5016425;28;20476;-68
2021/09/30 12:25:10;;;;;;;0.40;0.30;;;;;;;22.39;50.39;101989.06;5016511;28;20937;-68
2021/09/30 12:27:40;;;;;;;0.40;0.30;;;;;;;22.62;45.27;102003.19;5016728;28;20435;-69
2021/09/30 12:30:09;;;;;;;0.40;0.30;;;;;;;22.64;44.90;101989.84;5016369;28;20941;-68
2021/09/30 12:32:38;;;;;;;0.40;0.30;;;;;;;23.05;43.72;101993.41;5016306;28;20984;-68
2021/09/30 12:35:09;;;;;;;0.40;0.30;;;;;;;22.83;43.85;101990.00;5016297;28;20934;-68
2021/09/30 12:37:37;;;;;;;0.40;0.30;;;;;;;22.52;43.85;101998.13;5016239;28;20922;-68
2021/09/30 12:40:07;;;;;;;0.40;0.30;;;;;;;22.15;44.31;101985.19;5016487;28;20444;-68
2021/09/30 12:42:35;;;;;;;0.40;0.30;;;;;;;21.70;46.55;101985.25;5016404;28;20459;-68
2021/09/30 12:45:02;;;;;;;0.40;0.30;;;;;;;22.35;46.32;101982.63;5016345;28;20451;-68
2021/09/30 12:47:38;;;;;;;0.40;0.30;;;;;;;23.10;45.31;101990.41;5016259;28;20448;-68
2021/09/30 12:50:09;;;;;;;0.40;0.30;;;;;;;23.44;41.05;101990.94;5016359;28;20532;-69
2021/09/30 12:52:36;;;;;;;0.40;0.30;;;;;;;23.31;41.70;101984.66;5016104;28;20467;-68
2021/09/30 12:55:05;;;;;;;0.40;0.30;;;;;;;22.58;42.74;101985.72;5016457;28;20471;-68
2021/09/30 12:57:34;;;;;;;0.40;0.30;;;;;;;21.72;44.83;101982.94;5016126;28;20447;-68
2021/09/30 13:00:13;;;;;;;0.40;0.30;;;;;;;21.41;45.28;101976.00;5035817;28;20474;-68
2021/09/30 13:02:40;;;;;;;0.40;0.30;;;;;;;21.24;45.64;101973.38;5035823;28;20467;-68
2021/09/30 13:05:09;;;;;;;0.40;0.30;;;;;;;21.73;44.63;101973.50;5035567;28;20458;-68
2021/09/30 13:07:46;;;;;;;0.40;0.30;;;;;;;21.21;46.19;101974.06;5035238;28;20467;-69
2021/09/30 13:10:14;;;;;;;0.40;0.30;;;;;;;20.68;47.17;101967.41;5035791;28;20442;-68
2021/09/30 13:12:58;;;;;;;0.40;0.30;;;;;;;21.07;46.02;101968.03;5035375;28;20463;-68
2021/09/30 13:15:36;;;;;;;0.40;0.30;;;;;;;21.85;45.28;101965.25;5035741;28;20435;-68
2021/09/30 13:18:04;;;;;;;0.40;0.30;;;;;;;22.29;45.56;101970.22;5035282;28;20478;-68
2021/09/30 13:20:33;;;;;;;0.40;0.30;;;;;;;21.30;45.30;101966.53;5035659;28;20435;-68
2021/09/30 13:22:59;;;;;;;0.40;0.23;;;;;;;20.65;47.20;101970.81;5035083;28;20483;-68
2021/09/30 13:25:26;;;;;;;0.40;0.30;;;;;;;20.32;47.23;101968.78;5035497;28;20443;-68
2021/09/30 13:27:54;;;;;;;0.40;0.30;;;;;;;19.95;48.43;101964.91;5035473;28;20480;-68
2021/09/30 13:30:23;;;;;;;0.40;0.30;;;;;;;19.82;49.87;101971.44;5034656;28;20451;-68
2021/09/30 13:32:51;;;;;;;0.40;0.30;;;;;;;19.39;48.72;101962.19;5035290;28;20474;-67
2021/09/30 13:35:23;;;;;;;0.40;0.30;;;;;;;19.65;49.03;101951.09;5035331;28;20538;-68
2021/09/30 13:37:52;;;;;;;0.40;0.30;;;;;;;20.17;48.45;101972.06;5035230;28;20427;-68
2021/09/30 13:40:19;;;;;;;0.40;0.30;;;;;;;20.41;47.69;101960.47;5035254;28;20450;-68
2021/09/30 13:42:46;;;;;;;0.40;0.30;;;;;;;20.74;47.10;101974.31;5035150;28;20466;-71
2021/09/30 13:45:14;;;;;;;0.40;0.30;;;;;;;20.45;46.77;101966.06;5035145;28;20446;-69
2021/09/30 13:47:41;;;;;;;0.40;0.30;;;;;;;20.30;47.88;101971.03;5035113;28;20475;-69
2021/09/30 13:50:10;;;;;;;0.40;0.23;;;;;;;20.81;48.19;101962.78;5034720;28;20458;-68
2021/09/30 13:52:37;;;;;;;0.40;0.30;;;;;;;21.52;46.43;101964.53;5034907;28;20465;-69
2021/09/30 13:55:06;;;;;;;0.40;0.30;;;;;;;22.16;45.88;101964.72;5034933;28;20451;-69
2021/09/30 13:57:34;;;;;;;0.40;0.30;;;;;;;22.03;45.72;101962.28;5034910;28;20473;-69
2021/09/30 14:00:01;;;;;;;0.40;0.30;;;;;;;21.74;45.34;101958.59;5034810;28;20493;-69
2021/09/30 14:02:28;;;;;;;0.40;0.30;;;;;;;20.46;45.33;101971.25;5034782;28;20497;-69